Aviation Digital Data Service (ADDS)

Output produced by METARs form (0621 UTC 19 March 2019)
found at http://www.aviationweather.gov/metar/data/
 
Forecast for: LKPR (PRAGUE/RUZYNE , CZ)
Text: TAF LKPR 190500Z 1906/2012 24010KT CAVOK
Forecast period: 0600 UTC 19 March 2019 to 1200 UTC 20 March 2019
Forecast type: FROM: standard forecast or significant change
Winds: from the WSW (240 degrees) at 12 MPH (10 knots; 5.1 m/s)
Visibility: 6 or more miles 10+ km)
Ceiling: unknown
Clouds: missing
Weather: NSW  (no significant weather)
Text: TEMPO 1908/1918 32014G24KT 9999 BKN045
Forecast period: 0800 to 1800 UTC 19 March 2019
Forecast type: TEMPORARY: The following changes expected for less than half the time period
Winds: from the NW (320 degrees) at 16 MPH (14 knots; 7.2 m/s)
gusting to 28 MPH (24 knots; 12.3 m/s)
Visibility: 6 or more miles 10+ km)
Ceiling: 4500 feet AGL
Clouds: broken clouds at 4500 feet AGL
Weather: no significant weather forecast for this period